Time;durP1;ratioP1;P1;durP2;ratioP2;P2;SDS_P1;SDS_P2;PMS_P1;PMS_P2;Temp;Humidity;BMP_temperature;BMP_pressure;BME280_temperature;BME280_humidity;BME280_pressure;Samples;Min_cycle;Max_cycle;Signal;HPM_P1;HPM_P2
2022/11/17 00:00:27;;;;;;;11.25;3.10;;;;;;;13.15;100.00;100985.44;2093308;28;20397;-74
2022/11/17 00:01:51;;;;;;;15.63;6.93;;;;;;;13.20;100.00;100993.41;2099513;28;20036;-74
2022/11/17 00:03:14;;;;;;;13.90;8.05;;;;;;;13.18;100.00;100985.47;2102051;28;20448;-74
2022/11/17 00:04:37;;;;;;;13.25;8.45;;;;;;;13.17;100.00;100991.63;2093788;28;20094;-73
2022/11/17 00:06:02;;;;;;;11.48;3.70;;;;;;;13.18;100.00;100993.41;2094071;28;20048;-73
2022/11/17 00:07:24;;;;;;;10.88;4.22;;;;;;;13.21;100.00;100989.88;2087802;28;20041;-73
2022/11/17 00:08:47;;;;;;;8.02;3.00;;;;;;;13.24;100.00;100993.47;2107208;28;20083;-73
2022/11/17 00:10:10;;;;;;;5.07;2.70;;;;;;;13.28;100.00;100997.03;2087675;28;20087;-74
2022/11/17 00:14:31;;;;;;;6.07;2.63;;;;;;;13.31;100.00;100999.72;2091406;28;20139;-74
2022/11/17 00:14:53;;;;;;;8.57;2.80;;;;;;;13.37;100.00;101003.31;2090644;28;20049;-74
2022/11/17 00:16:17;;;;;;;6.10;2.65;;;;;;;13.40;100.00;101000.66;2093258;28;20102;-73
2022/11/17 00:17:41;;;;;;;8.30;3.50;;;;;;;13.40;100.00;100995.34;2093402;28;20048;-74
2022/11/17 00:22:23;;;;;;;6.75;2.72;;;;;;;13.34;100.00;100992.66;2112415;28;20061;-73
2022/11/17 00:23:48;;;;;;;7.03;2.97;;;;;;;13.30;100.00;100989.97;2097355;28;20044;-74
2022/11/17 00:25:10;;;;;;;5.47;2.53;;;;;;;13.28;100.00;100987.31;2099661;28;20044;-74
2022/11/17 00:26:34;;;;;;;7.25;2.97;;;;;;;13.27;100.00;100985.53;2093620;28;20052;-73
2022/11/17 00:27:56;;;;;;;6.60;3.35;;;;;;;13.28;100.00;100987.31;2085091;28;20053;-74
2022/11/17 00:29:19;;;;;;;5.85;3.00;;;;;;;13.26;100.00;100986.41;2090302;28;20532;-74
2022/11/17 00:34:04;;;;;;;8.57;3.05;;;;;;;13.27;100.00;100981.97;2104095;28;20050;-74
2022/11/17 00:35:27;;;;;;;5.13;2.55;;;;;;;13.25;100.00;100979.34;2096322;28;20055;-73
2022/11/17 00:36:50;;;;;;;6.20;2.65;;;;;;;13.28;100.00;100986.41;2093995;28;20061;-73
2022/11/17 00:38:18;;;;;;;5.13;2.42;;;;;;;13.32;100.00;100989.13;2102204;28;20070;-74
2022/11/17 00:39:40;;;;;;;6.45;2.65;;;;;;;13.35;100.00;100989.13;2096069;28;20455;-74
2022/11/17 00:41:02;;;;;;;6.18;2.40;;;;;;;13.40;100.00;100982.09;2094052;28;20055;-73
2022/11/17 00:42:24;;;;;;;4.35;2.15;;;;;;;13.44;100.00;100990.97;2095334;28;20044;-73
2022/11/17 00:43:45;;;;;;;8.30;2.83;;;;;;;13.45;100.00;100983.03;2101757;28;20059;-73
2022/11/17 00:45:09;;;;;;;6.85;2.63;;;;;;;13.47;100.00;100986.56;2100809;28;20143;-73
2022/11/17 00:46:30;;;;;;;6.53;3.20;;;;;;;13.50;100.00;100991.03;2108178;28;20051;-73
2022/11/17 00:47:53;;;;;;;6.10;2.30;;;;;;;13.48;100.00;100990.13;2101412;28;20539;-73
2022/11/17 00:49:20;;;;;;;6.55;2.55;;;;;;;13.47;100.00;100986.56;2107676;28;20072;-73
2022/11/17 00:50:42;;;;;;;8.50;3.28;;;;;;;13.45;100.00;100991.00;2104569;28;20586;-73
2022/11/17 00:52:05;;;;;;;10.98;3.20;;;;;;;13.42;100.00;100988.31;2101915;28;20443;-74
2022/11/17 00:53:26;;;;;;;8.55;3.58;;;;;;;13.41;100.00;100985.63;2102046;28;20373;-73
2022/11/17 00:54:49;;;;;;;6.10;2.25;;;;;;;13.39;100.00;100982.09;2093380;28;20589;-74
2022/11/17 00:56:10;;;;;;;5.68;2.50;;;;;;;13.37;100.00;100979.44;2099513;28;20507;-73
2022/11/17 00:57:32;;;;;;;8.90;3.13;;;;;;;13.36;100.00;100990.91;2101706;28;20040;-73
2022/11/17 00:58:54;;;;;;;6.90;3.03;;;;;;;13.36;100.00;100984.72;2101454;28;20113;-74
2022/11/17 01:00:17;;;;;;;5.53;2.53;;;;;;;13.34;100.00;100987.34;2101523;28;20052;-73
2022/11/17 01:01:39;;;;;;;4.47;2.38;;;;;;;13.38;100.00;100991.81;2110112;28;20445;-73
2022/11/17 01:03:01;;;;;;;5.85;2.70;;;;;;;13.43;100.00;100994.50;2112404;28;20125;-74
2022/11/17 01:04:24;;;;;;;9.40;2.70;;;;;;;13.46;100.00;100990.09;2098858;28;20064;-73
2022/11/17 01:05:46;;;;;;;7.50;2.72;;;;;;;13.49;100.00;100992.78;2090472;28;20041;-74
2022/11/17 01:07:08;;;;;;;5.00;2.33;;;;;;;13.53;100.00;100998.97;2098562;28;20040;-73
2022/11/17 01:08:30;;;;;;;6.65;2.90;;;;;;;13.54;100.00;100995.47;2101476;28;20444;-74
2022/11/17 01:09:52;;;;;;;6.85;2.60;;;;;;;13.54;100.00;100999.00;2104685;28;20045;-73
2022/11/17 01:11:15;;;;;;;7.00;2.00;;;;;;;13.55;100.00;100992.81;2109449;28;20044;-73
2022/11/17 01:12:38;;;;;;;4.25;2.80;;;;;;;13.57;100.00;100991.09;2092280;28;20538;-73
2022/11/17 01:14:00;;;;;;;6.18;2.38;;;;;;;13.57;100.00;100991.09;2090872;28;20057;-73
2022/11/17 01:15:22;;;;;;;11.73;3.38;;;;;;;13.57;100.00;100995.50;2090839;28;20044;-73
2022/11/17 01:16:45;;;;;;;5.70;3.03;;;;;;;13.56;100.00;100988.41;2093517;28;20045;-74
2022/11/17 01:18:08;;;;;;;6.43;2.65;;;;;;;13.55;100.00;100991.94;2095945;28;20036;-74
2022/11/17 01:19:31;;;;;;;6.93;2.50;;;;;;;13.53;100.00;100989.25;2092951;28;20052;-73
2022/11/17 01:20:53;;;;;;;7.47;2.60;;;;;;;13.56;100.00;100993.72;2100870;28;20531;-73
2022/11/17 01:22:16;;;;;;;6.88;2.47;;;;;;;13.60;100.00;100984.88;2109673;28;20039;-73
2022/11/17 01:23:39;;;;;;;7.03;2.58;;;;;;;13.60;100.00;100984.00;2095796;28;20582;-73
2022/11/17 01:25:01;;;;;;;6.45;2.63;;;;;;;13.61;100.00;100991.09;2099246;28;20052;-73
2022/11/17 01:26:25;;;;;;;7.15;2.60;;;;;;;13.59;100.00;100982.25;2101974;28;20388;-73
2022/11/17 01:27:48;;;;;;;7.05;2.83;;;;;;;13.58;100.00;100984.00;2102439;28;20060;-73
2022/11/17 01:29:13;;;;;;;6.82;2.60;;;;;;;13.60;100.00;100981.34;2106055;28;20036;-74
2022/11/17 01:30:34;;;;;;;6.60;2.53;;;;;;;13.66;100.00;100982.28;2098057;28;20070;-73
2022/11/17 01:31:56;;;;;;;6.55;2.42;;;;;;;13.74;100.00;100980.56;2094919;28;20057;-73
2022/11/17 01:33:18;;;;;;;7.07;2.60;;;;;;;13.84;100.00;100978.88;2111260;28;20058;-73
2022/11/17 01:34:41;;;;;;;7.13;2.92;;;;;;;13.92;100.00;100983.31;2106034;28;20105;-73
2022/11/17 01:36:05;;;;;;;6.60;2.22;;;;;;;13.98;100.00;100987.75;2111838;28;20055;-73
2022/11/17 01:37:27;;;;;;;8.13;2.28;;;;;;;14.02;100.00;100981.63;2095874;28;20044;-73
2022/11/17 01:38:50;;;;;;;7.15;2.00;;;;;;;14.05;100.00;100984.25;2100071;28;20063;-74
2022/11/17 01:40:12;;;;;;;9.68;2.08;;;;;;;14.12;100.00;100986.06;2106451;28;20048;-73
2022/11/17 01:41:34;;;;;;;6.03;2.20;;;;;;;14.19;100.00;100985.22;2096876;28;20040;-74
2022/11/17 01:42:55;;;;;;;6.32;2.17;;;;;;;14.29;100.00;100988.81;2093596;28;20573;-73
2022/11/17 01:44:53;;;;;;;6.03;1.77;;;;;;;14.38;100.00;100977.34;2093556;28;20139;-73
2022/11/17 01:46:27;;;;;;;3.78;1.63;;;;;;;14.44;100.00;100980.06;2088017;28;20479;-74
2022/11/17 01:47:51;;;;;;;5.55;2.20;;;;;;;14.51;100.00;100981.81;2095609;28;20040;-74
2022/11/17 01:49:19;;;;;;;6.75;2.28;;;;;;;14.54;100.00;100979.19;2086048;28;20067;-74
2022/11/17 01:50:48;;;;;;;4.90;2.38;;;;;;;14.56;100.00;100970.34;2101241;28;20596;-73
2022/11/17 01:52:11;;;;;;;8.50;2.13;;;;;;;14.62;100.00;100974.78;2112392;28;20384;-73
2022/11/17 01:53:34;;;;;;;7.30;2.63;;;;;;;14.69;100.00;100977.47;2111185;28;20043;-73
2022/11/17 01:54:57;;;;;;;6.53;2.38;;;;;;;14.73;100.00;100967.72;2110993;28;20099;-74
2022/11/17 01:56:24;;;;;;;6.25;2.35;;;;;;;14.73;100.00;100971.28;2108330;28;20058;-73
2022/11/17 01:57:53;;;;;;;6.38;2.08;;;;;;;14.72;100.00;100963.28;2087167;28;20091;-74
2022/11/17 01:59:21;;;;;;;5.82;2.15;;;;;;;14.68;100.00;100972.16;2093922;28;20049;-74
2022/11/17 02:00:42;;;;;;;9.90;2.58;;;;;;;14.61;100.00;100973.91;2087433;28;20040;-74
2022/11/17 02:02:05;;;;;;;7.00;2.85;;;;;;;14.58;100.00;100970.34;2095424;28;20054;-73
2022/11/17 02:03:31;;;;;;;4.32;2.20;;;;;;;14.54;100.00;100965.91;2094459;28;20044;-73
2022/11/17 02:05:00;;;;;;;8.00;2.20;;;;;;;14.52;100.00;100965.91;2101560;28;20788;-73
2022/11/17 02:06:30;;;;;;;8.23;2.83;;;;;;;14.53;100.00;100972.09;2097574;28;20052;-73
2022/11/17 02:07:53;;;;;;;7.22;2.35;;;;;;;14.54;100.00;100968.56;2095282;28;20045;-72
2022/11/17 02:09:16;;;;;;;5.72;2.33;;;;;;;14.56;100.00;100972.13;2094542;28;20041;-73
2022/11/17 02:10:38;;;;;;;4.38;2.00;;;;;;;14.61;100.00;100975.66;2086667;28;20052;-73
2022/11/17 02:12:02;;;;;;;4.03;1.90;;;;;;;14.65;100.00;100969.47;2099949;28;20139;-74
2022/11/17 02:13:25;;;;;;;4.43;2.03;;;;;;;14.67;100.00;100968.59;2103020;28;20112;-73
2022/11/17 02:14:48;;;;;;;7.15;2.15;;;;;;;14.72;100.00;100972.16;2102999;28;20207;-73
2022/11/17 02:16:12;;;;;;;6.97;1.70;;;;;;;14.72;100.00;100973.91;2103078;28;20052;-73
2022/11/17 02:17:36;;;;;;;9.65;2.15;;;;;;;14.75;100.00;100973.94;2094233;28;20043;-73
2022/11/17 02:18:59;;;;;;;11.18;2.35;;;;;;;14.79;100.00;100981.03;2101205;28;20050;-73
2022/11/17 02:20:43;;;;;;;8.07;2.28;;;;;;;14.83;100.00;100977.50;2103690;28;20433;-74
2022/11/17 02:22:59;;;;;;;7.82;2.20;;;;;;;14.82;100.00;100981.03;2105568;28;20074;-73
2022/11/17 02:25:01;;;;;;;8.05;2.30;;;;;;;14.79;100.00;100978.38;2062062;28;20066;-73
2022/11/17 02:26:54;;;;;;;5.65;1.95;;;;;;;14.77;100.00;100979.25;2105563;28;20438;-73
2022/11/17 02:28:23;;;;;;;9.32;2.47;;;;;;;14.77;100.00;100979.25;2104815;28;20568;-73
2022/11/17 02:29:52;;;;;;;5.50;1.90;;;;;;;14.80;100.00;100976.59;2103870;28;20514;-74
2022/11/17 02:31:23;;;;;;;5.85;2.10;;;;;;;14.82;100.00;100975.72;2089242;28;20057;-73
2022/11/17 02:32:56;;;;;;;6.32;2.10;;;;;;;14.81;100.00;100979.25;2092745;28;20682;-73
2022/11/17 02:34:30;;;;;;;9.88;2.60;;;;;;;14.82;100.00;100975.72;2103403;28;20044;-73
2022/11/17 02:36:00;;;;;;;9.40;2.10;;;;;;;14.80;100.00;100979.25;2104641;28;20044;-73
2022/11/17 02:37:30;;;;;;;7.25;2.33;;;;;;;14.79;100.00;100981.03;2104615;28;20097;-73
2022/11/17 02:39:00;;;;;;;6.07;2.30;;;;;;;14.81;100.00;100979.25;2100770;28;20063;-74
2022/11/17 02:40:29;;;;;;;6.95;2.10;;;;;;;14.80;100.00;100977.47;2096896;28;20884;-74
2022/11/17 02:41:56;;;;;;;3.88;1.90;;;;;;;14.76;100.00;100983.69;2094651;28;20134;-73
2022/11/17 02:45:08;;;;;;;6.45;2.90;;;;;;;14.69;100.00;100976.59;2104139;28;20055;-74
2022/11/17 02:46:37;;;;;;;5.97;2.17;;;;;;;14.68;100.00;100975.69;2091557;28;20127;-73
2022/11/17 02:48:01;;;;;;;6.63;2.15;;;;;;;14.69;100.00;100981.91;2102306;28;20040;-74
2022/11/17 02:49:26;;;;;;;7.10;2.28;;;;;;;14.71;100.00;100982.78;2093997;28;20111;-71
2022/11/17 02:50:49;;;;;;;6.20;2.42;;;;;;;14.72;100.00;100974.81;2101365;28;20052;-74
2022/11/17 02:52:12;;;;;;;7.47;2.38;;;;;;;14.78;100.00;100979.25;2096859;28;20142;-73
2022/11/17 02:53:35;;;;;;;7.03;2.13;;;;;;;14.81;100.00;100983.69;2108615;28;20127;-73
2022/11/17 02:54:59;;;;;;;7.50;2.40;;;;;;;14.82;100.00;100980.16;2097464;28;20044;-73
2022/11/17 02:56:21;;;;;;;5.05;2.40;;;;;;;14.82;100.00;100985.47;2092692;28;20048;-74
2022/11/17 02:57:44;;;;;;;9.63;2.63;;;;;;;14.82;100.00;100982.81;2099698;28;20048;-74
2022/11/17 02:59:07;;;;;;;7.65;2.35;;;;;;;14.80;100.00;100976.59;2102020;28;20714;-74
2022/11/17 03:00:35;;;;;;;5.75;2.38;;;;;;;14.77;100.00;100980.13;2105350;28;20051;-74
2022/11/17 03:02:27;;;;;;;6.80;2.25;;;;;;;14.72;100.00;100976.56;2095158;28;20041;-73
2022/11/17 03:04:01;;;;;;;7.63;2.58;;;;;;;14.69;100.00;100973.94;2105144;28;20086;-73
2022/11/17 03:05:31;;;;;;;9.82;2.75;;;;;;;14.68;100.00;100974.81;2096938;28;20163;-74
2022/11/17 03:07:04;;;;;;;6.35;2.17;;;;;;;14.68;100.00;100977.47;2095577;28;20241;-73
2022/11/17 03:08:36;;;;;;;6.80;2.47;;;;;;;14.69;100.00;100976.59;2108035;28;20544;-74
2022/11/17 03:10:06;;;;;;;10.05;2.30;;;;;;;14.67;100.00;100976.56;2105348;28;20102;-74
2022/11/17 03:11:39;;;;;;;7.35;1.92;;;;;;;14.67;100.00;100981.88;2107174;28;20132;-73
2022/11/17 03:13:08;;;;;;;8.95;2.75;;;;;;;14.68;100.00;100974.81;2096860;28;20162;-74
2022/11/17 03:14:42;;;;;;;8.75;2.47;;;;;;;14.68;100.00;100977.47;2102051;28;20127;-73
2022/11/17 03:16:16;;;;;;;5.18;2.10;;;;;;;14.67;100.00;100975.69;2095800;28;20082;-74
2022/11/17 03:17:44;;;;;;;7.82;2.20;;;;;;;14.69;100.00;100973.94;2104323;28;20097;-73
2022/11/17 03:19:15;;;;;;;11.90;2.30;;;;;;;14.71;100.00;100982.78;2096845;28;20057;-74
2022/11/17 03:20:44;;;;;;;9.10;2.67;;;;;;;14.73;100.00;100983.66;2096892;28;20794;-73
2022/11/17 03:22:12;;;;;;;6.57;2.80;;;;;;;14.77;100.00;100977.47;2088746;28;20044;-73
2022/11/17 03:23:42;;;;;;;5.63;2.38;;;;;;;14.81;100.00;100973.94;2103121;28;20085;-73
2022/11/17 03:25:08;;;;;;;6.63;2.63;;;;;;;14.85;100.00;100975.72;2096142;28;20101;-73
2022/11/17 03:26:34;;;;;;;6.85;2.20;;;;;;;14.90;100.00;100981.91;2094446;28;20036;-73
2022/11/17 03:28:02;;;;;;;6.50;2.20;;;;;;;14.96;100.00;100984.63;2101163;28;20036;-74
2022/11/17 03:29:27;;;;;;;12.02;2.83;;;;;;;15.00;100.00;100981.06;2094717;28;20445;-74
2022/11/17 03:30:51;;;;;;;9.35;2.70;;;;;;;15.03;100.00;100985.50;2102081;28;20070;-74
2022/11/17 03:32:17;;;;;;;4.80;1.77;;;;;;;15.03;100.00;100985.50;2105224;28;20399;-73
2022/11/17 03:33:40;;;;;;;6.85;2.80;;;;;;;15.02;100.00;100981.06;2104498;28;20040;-73
2022/11/17 03:35:08;;;;;;;8.50;2.42;;;;;;;15.03;100.00;100978.38;2094300;28;20051;-74
2022/11/17 03:36:34;;;;;;;5.00;2.00;;;;;;;15.05;100.00;100981.94;2101690;28;20101;-74
2022/11/17 03:38:00;;;;;;;7.10;2.65;;;;;;;15.06;100.00;100978.41;2103109;28;20052;-73
2022/11/17 03:39:27;;;;;;;8.77;2.70;;;;;;;15.07;100.00;100972.22;2106746;28;20039;-73
2022/11/17 03:40:51;;;;;;;7.75;2.15;;;;;;;15.08;100.00;100979.31;2109932;28;20096;-74
2022/11/17 03:42:16;;;;;;;8.30;2.38;;;;;;;15.08;100.00;100968.66;2101121;28;20032;-74
2022/11/17 03:43:43;;;;;;;5.90;2.05;;;;;;;15.09;100.00;100974.88;2102609;28;20100;-73
2022/11/17 03:45:10;;;;;;;8.27;2.10;;;;;;;15.11;100.00;100973.97;2094859;28;20105;-74
2022/11/17 03:46:37;;;;;;;6.57;2.15;;;;;;;15.17;100.00;100970.41;2101353;28;20048;-73
2022/11/17 03:48:04;;;;;;;7.72;2.20;;;;;;;15.18;100.00;100972.19;2102192;28;20077;-74
2022/11/17 03:49:35;;;;;;;5.65;2.30;;;;;;;15.19;100.00;100967.78;2104296;28;20044;-74
2022/11/17 03:51:05;;;;;;;4.05;1.90;;;;;;;15.16;100.00;100969.53;2103533;28;20495;-73
2022/11/17 03:52:28;;;;;;;6.53;2.20;;;;;;;15.14;100.00;100970.44;2103310;28;20465;-73
2022/11/17 03:53:52;;;;;;;5.70;2.30;;;;;;;15.13;100.00;100972.22;2101276;28;20095;-74
2022/11/17 03:55:15;;;;;;;5.45;2.38;;;;;;;15.10;100.00;100969.53;2100801;28;20507;-73
2022/11/17 03:56:42;;;;;;;4.50;2.03;;;;;;;15.08;100.00;100976.66;2110833;28;20483;-74
2022/11/17 03:58:09;;;;;;;6.20;1.95;;;;;;;15.05;100.00;100979.28;2096511;28;20542;-73
2022/11/17 03:59:38;;;;;;;5.43;2.17;;;;;;;15.02;100.00;100976.63;2092630;28;20092;-73
2022/11/17 04:01:02;;;;;;;10.00;2.95;;;;;;;15.00;100.00;100973.09;2095772;28;20109;-74
2022/11/17 04:02:27;;;;;;;8.73;2.33;;;;;;;15.00;100.00;100978.41;2094061;28;20052;-74
2022/11/17 04:03:48;;;;;;;9.27;2.58;;;;;;;14.97;100.00;100975.72;2093920;28;20067;-74
2022/11/17 04:05:12;;;;;;;6.30;3.00;;;;;;;14.98;100.00;100982.81;2106954;28;20143;-73
2022/11/17 04:06:33;;;;;;;10.45;2.58;;;;;;;14.98;100.00;100974.84;2102416;28;20048;-73
2022/11/17 04:07:55;;;;;;;7.20;2.70;;;;;;;14.99;100.00;100979.28;2093975;28;20524;-73
2022/11/17 04:09:18;;;;;;;7.82;3.38;;;;;;;15.00;100.00;100978.41;2099321;28;20048;-73
2022/11/17 04:17:15;;;;;;;10.93;4.13;;;;;;;15.09;100.00;100994.38;2104131;28;20062;-73
2022/11/17 04:18:39;;;;;;;11.40;3.17;;;;;;;15.14;100.00;100997.03;2102294;28;20086;-73
2022/11/17 04:20:00;;;;;;;6.78;2.65;;;;;;;15.18;100.00;100992.59;2094014;28;20558;-73
2022/11/17 04:21:23;;;;;;;6.57;2.35;;;;;;;15.22;100.00;100997.94;2085388;28;20055;-74
2022/11/17 04:22:44;;;;;;;7.85;2.90;;;;;;;15.27;100.00;100995.25;2099580;28;20085;-73
2022/11/17 04:24:07;;;;;;;9.07;3.03;;;;;;;15.28;100.00;101003.25;2107722;28;20055;-73
2022/11/17 04:28:47;;;;;;;8.98;3.25;;;;;;;15.28;100.00;101010.34;2095318;28;20071;-74
2022/11/17 04:30:11;;;;;;;8.70;2.70;;;;;;;15.29;100.00;101012.13;2095864;28;20072;-74
2022/11/17 04:31:32;;;;;;;10.02;3.30;;;;;;;15.29;100.00;101014.78;2091253;28;20415;-74
2022/11/17 04:32:55;;;;;;;7.07;2.60;;;;;;;15.30;100.00;101021.84;2093823;28;20075;-73
2022/11/17 04:34:18;;;;;;;10.55;4.05;;;;;;;15.29;100.00;101018.31;2091196;28;20052;-74
2022/11/17 04:35:40;;;;;;;10.77;2.83;;;;;;;15.28;100.00;101018.31;2093925;28;20097;-73
2022/11/17 04:37:02;;;;;;;9.02;2.63;;;;;;;15.29;100.00;101025.41;2099060;28;20077;-74
2022/11/17 04:38:23;;;;;;;9.77;2.63;;;;;;;15.34;100.00;101020.97;2093544;28;20607;-74
2022/11/17 04:39:46;;;;;;;6.95;2.88;;;;;;;15.36;100.00;101020.06;2099147;28;20487;-74
2022/11/17 04:42:48;;;;;;;8.88;2.85;;;;;;;15.38;100.00;101022.72;2096338;28;20052;-74
2022/11/17 04:44:12;;;;;;;9.00;3.00;;;;;;;15.37;100.00;101010.31;2100724;28;20055;-74
2022/11/17 04:45:34;;;;;;;9.05;3.03;;;;;;;15.36;100.00;101013.88;2108192;28;20654;-73
2022/11/17 04:46:58;;;;;;;9.27;3.05;;;;;;;15.37;100.00;101013.88;2101777;28;20139;-74
2022/11/17 04:48:19;;;;;;;10.02;3.25;;;;;;;15.41;100.00;101012.09;2097985;28;20052;-73
2022/11/17 04:49:43;;;;;;;10.55;2.70;;;;;;;15.44;100.00;101020.97;2101937;28;20044;-74
2022/11/17 04:51:04;;;;;;;9.05;3.28;;;;;;;15.47;100.00;101020.09;2094772;28;20454;-74
2022/11/17 04:52:27;;;;;;;6.65;2.65;;;;;;;15.48;100.00;101022.75;2102134;28;20170;-74
2022/11/17 04:53:49;;;;;;;6.15;2.78;;;;;;;15.51;100.00;101016.53;2102734;28;20457;-73
2022/11/17 04:55:11;;;;;;;7.78;2.65;;;;;;;15.52;100.00;101020.97;2110369;28;20083;-73
2022/11/17 04:56:33;;;;;;;7.65;2.33;;;;;;;15.55;100.00;101026.34;2102074;28;20040;-73
2022/11/17 04:57:55;;;;;;;8.98;3.05;;;;;;;15.58;100.00;101023.66;2106993;28;20100;-74
2022/11/17 04:59:18;;;;;;;5.47;2.60;;;;;;;15.61;100.00;101026.31;2106926;28;20036;-73
2022/11/17 05:00:39;;;;;;;4.80;2.33;;;;;;;15.65;100.00;101032.53;2101741;28;20082;-74
2022/11/17 05:02:01;;;;;;;13.93;3.22;;;;;;;15.66;100.00;101032.53;2105148;28;20499;-73
2022/11/17 05:03:23;;;;;;;7.93;2.47;;;;;;;15.70;100.00;101036.94;2103624;28;20048;-73
2022/11/17 05:04:58;;;;;;;11.95;3.05;;;;;;;15.75;100.00;101034.31;2105689;28;20043;-73
2022/11/17 05:06:22;;;;;;;7.47;2.50;;;;;;;15.75;100.00;101034.31;2107770;28;20044;-73
2022/11/17 05:07:45;;;;;;;8.27;2.30;;;;;;;15.76;100.00;101039.59;2096319;28;20598;-73
2022/11/17 05:09:09;;;;;;;8.70;2.67;;;;;;;15.77;100.00;101036.06;2094652;28;20115;-74
2022/11/17 05:13:50;;;;;;;10.82;4.55;;;;;;;15.78;100.00;101037.84;2097278;28;20136;-73
2022/11/17 05:17:03;;;;;;;12.63;5.13;;;;;;;15.77;100.00;101036.06;2107227;28;20142;-73
2022/11/17 05:17:08;;;;;;;8.00;4.78;;;;;;;15.76;100.00;101036.94;2097457;28;20048;-73
2022/11/17 05:18:29;;;;;;;10.50;5.70;;;;;;;15.78;100.00;101043.16;2105314;28;20063;-73
2022/11/17 05:19:53;;;;;;;11.85;5.93;;;;;;;15.78;100.00;101037.84;2105264;28;20135;-73
2022/11/17 05:21:15;;;;;;;9.05;4.53;;;;;;;15.80;100.00;101036.06;2109337;28;20089;-73
2022/11/17 05:24:18;;;;;;;11.70;6.20;;;;;;;15.86;100.00;101035.16;2104816;28;20037;-75
2022/11/17 05:25:39;;;;;;;12.35;6.72;;;;;;;15.90;100.00;101047.56;2089050;28;20052;-73
2022/11/17 05:27:01;;;;;;;13.32;5.75;;;;;;;15.92;100.00;101036.03;2100834;28;20113;-73
2022/11/17 05:28:23;;;;;;;13.60;5.40;;;;;;;15.95;100.00;101038.69;2103494;28;20101;-74
2022/11/17 05:29:46;;;;;;;10.85;4.35;;;;;;;15.94;100.00;101044.94;2106186;28;20055;-73
2022/11/17 05:31:07;;;;;;;7.20;3.53;;;;;;;15.97;100.00;101040.47;2095290;28;20040;-73
2022/11/17 05:32:29;;;;;;;8.75;3.72;;;;;;;15.95;100.00;101044.00;2098165;28;20076;-74
2022/11/17 05:33:51;;;;;;;8.82;3.05;;;;;;;15.96;100.00;101042.22;2102208;28;20051;-74
2022/11/17 05:35:15;;;;;;;8.38;3.08;;;;;;;15.97;100.00;101037.78;2111548;28;20062;-73
2022/11/17 05:36:36;;;;;;;12.45;3.65;;;;;;;15.97;100.00;101043.13;2089527;28;20033;-73
2022/11/17 05:37:59;;;;;;;9.50;5.15;;;;;;;15.98;100.00;101039.56;2092512;28;20059;-73
2022/11/17 05:39:20;;;;;;;14.30;8.13;;;;;;;15.99;100.00;101042.25;2103484;28;20052;-73
2022/11/17 05:40:43;;;;;;;17.55;8.05;;;;;;;15.99;100.00;101044.00;2097601;28;20048;-73
2022/11/17 05:42:05;;;;;;;17.13;10.68;;;;;;;16.03;100.00;101046.66;2103648;28;20044;-73
2022/11/17 05:43:28;;;;;;;27.27;20.02;;;;;;;16.06;100.00;101043.13;2089390;28;20045;-74
2022/11/17 05:44:50;;;;;;;32.15;24.30;;;;;;;16.10;100.00;101047.53;2094859;28;20070;-73
2022/11/17 05:46:12;;;;;;;38.13;27.60;;;;;;;16.13;100.00;101045.75;2094604;28;20044;-74
2022/11/17 05:47:34;;;;;;;36.50;29.65;;;;;;;16.14;100.00;101041.31;2100657;28;20689;-74
2022/11/17 05:48:56;;;;;;;47.22;39.10;;;;;;;16.15;100.00;101045.72;2110649;28;20046;-73
2022/11/17 05:50:20;;;;;;;42.92;37.08;;;;;;;16.17;100.00;101043.97;2105107;28;20150;-74
2022/11/17 05:51:42;;;;;;;39.63;34.38;;;;;;;16.17;100.00;101043.97;2094423;28;20505;-73
2022/11/17 05:53:04;;;;;;;40.05;35.03;;;;;;;16.17;100.00;101034.19;2100455;28;20446;-73
2022/11/17 05:54:26;;;;;;;43.97;35.72;;;;;;;16.17;100.00;101036.88;2085815;28;20037;-74
2022/11/17 05:55:48;;;;;;;37.95;33.83;;;;;;;16.16;100.00;101037.75;2098180;28;20052;-73
2022/11/17 05:57:14;;;;;;;35.63;31.25;;;;;;;16.22;100.00;101039.50;2094970;28;20050;-74
2022/11/17 05:58:39;;;;;;;32.17;24.88;;;;;;;16.40;100.00;101049.22;2101922;28;20578;-73
2022/11/17 06:00:04;;;;;;;17.17;14.75;;;;;;;16.60;100.00;101042.09;2103617;28;20139;-74
2022/11/17 06:01:36;;;;;;;16.25;14.27;;;;;;;16.70;100.00;101043.78;2105328;28;20462;-74
2022/11/17 06:03:02;;;;;;;14.88;11.18;;;;;;;16.74;100.00;101041.09;2103735;28;20040;-74
2022/11/17 06:04:24;;;;;;;8.15;5.05;;;;;;;16.90;100.00;101051.69;2100734;28;20051;-74
2022/11/17 06:05:48;;;;;;;12.93;7.65;;;;;;;17.11;100.00;101040.91;2095961;28;20036;-74
2022/11/17 06:07:10;;;;;;;10.50;6.03;;;;;;;17.31;100.00;101046.97;2102045;28;20436;-73
2022/11/17 06:08:32;;;;;;;10.50;5.70;;;;;;;17.52;100.00;101045.94;2100272;28;20113;-73
2022/11/17 06:09:55;;;;;;;7.88;4.50;;;;;;;17.70;100.00;101042.25;2103116;28;20056;-74
2022/11/17 06:11:17;;;;;;;6.90;5.03;;;;;;;17.88;100.00;101042.94;2100099;28;21514;-74
2022/11/17 06:12:40;;;;;;;8.60;3.95;;;;;;;18.06;100.00;101035.63;2102663;28;20055;-73
2022/11/17 06:14:02;;;;;;;5.55;3.40;;;;;;;18.21;100.00;101036.38;2102852;28;20106;-75
2022/11/17 06:15:24;;;;;;;7.57;3.50;;;;;;;18.39;100.00;101043.28;2111224;28;20052;-74
2022/11/17 06:16:49;;;;;;;3.97;2.35;;;;;;;18.55;100.00;101030.63;2097065;28;20532;-74
2022/11/17 06:18:14;;;;;;;7.18;2.08;;;;;;;18.69;100.00;101031.34;2097219;28;20102;-74
2022/11/17 06:19:40;;;;;;;2.38;1.45;;;;;;;18.84;100.00;101028.44;2095177;28;20058;-74
2022/11/17 06:21:05;;;;;;;4.70;1.90;;;;;;;18.98;100.00;101017.56;2087159;28;20440;-74
2022/11/17 06:22:29;;;;;;;3.50;1.27;;;;;;;19.10;100.00;101017.38;2100013;28;20771;-74
2022/11/17 06:23:51;;;;;;;6.45;1.33;;;;;;;19.23;100.00;101020.78;2103648;28;20059;-74
2022/11/17 06:25:14;;;;;;;3.67;1.23;;;;;;;19.36;100.00;101011.63;2094264;28;20036;-74
2022/11/17 06:26:37;;;;;;;4.57;1.10;;;;;;;19.46;100.00;101008.78;2097287;28;20048;-74
2022/11/17 06:28:01;;;;;;;2.70;1.30;;;;;;;19.57;100.00;101005.03;2094862;28;20101;-73
2022/11/17 06:29:24;;;;;;;4.10;1.40;;;;;;;19.67;100.00;100996.84;2111636;28;20068;-74
2022/11/17 06:30:47;;;;;;;4.55;1.20;;;;;;;19.76;100.00;100995.75;2106570;28;20048;-74
2022/11/17 06:32:10;;;;;;;7.13;1.50;;;;;;;19.84;100.00;100985.78;2099300;28;20048;-74
2022/11/17 06:33:33;;;;;;;2.80;1.00;;;;;;;19.92;100.00;100994.56;2102997;28;20460;-74
2022/11/17 06:34:56;;;;;;;4.63;1.30;;;;;;;19.99;100.00;100996.22;2103271;28;20054;-74
2022/11/17 06:36:21;;;;;;;3.05;1.23;;;;;;;20.07;100.00;100991.59;2102786;28;20429;-74
2022/11/17 06:37:42;;;;;;;3.22;0.77;;;;;;;20.15;100.00;100992.31;2095066;28;20072;-74
2022/11/17 06:39:05;;;;;;;3.38;0.93;;;;;;;20.21;100.00;100984.19;2100298;28;20513;-74
2022/11/17 06:40:27;;;;;;;6.05;1.30;;;;;;;20.31;100.00;100987.53;2105760;28;20527;-74
2022/11/17 06:41:50;;;;;;;4.30;1.33;;;;;;;20.39;100.00;100984.72;2094735;28;20467;-74
2022/11/17 06:43:11;;;;;;;4.50;1.40;;;;;;;20.47;100.00;100991.72;2087203;28;20635;-75
2022/11/17 06:44:33;;;;;;;3.80;1.13;;;;;;;20.55;100.00;100983.47;2099812;28;20044;-74
2022/11/17 06:45:56;;;;;;;6.78;1.40;;;;;;;20.63;100.00;100984.19;2095683;28;20067;-75
2022/11/17 06:47:18;;;;;;;5.53;1.15;;;;;;;20.66;100.00;100976.97;2102990;28;20048;-74
2022/11/17 06:48:40;;;;;;;4.30;1.27;;;;;;;20.73;100.00;100979.53;2096719;28;20127;-74
2022/11/17 06:50:02;;;;;;;4.45;1.02;;;;;;;20.79;100.00;100976.69;2095660;28;20045;-74
2022/11/17 06:51:26;;;;;;;1.77;0.82;;;;;;;20.85;100.00;100977.44;2101549;28;20056;-74
2022/11/17 06:52:47;;;;;;;4.00;1.30;;;;;;;20.94;100.00;100979.00;2094067;28;20161;-74
2022/11/17 06:54:11;;;;;;;3.10;1.00;;;;;;;21.01;100.00;100977.94;2094350;28;20425;-74
2022/11/17 06:55:34;;;;;;;3.55;0.93;;;;;;;21.05;100.00;100974.28;2112276;27;20533;-74